sensor_id;sensor_type;location;lat;lon;timestamp;pressure;altitude;pressure_sealevel;temperature;humidity
56420;BME280;42323;52.170;7.538;2023-04-04T00:00:22;102642.22;;;1.15;nan
56420;BME280;42323;52.170;7.538;2023-04-04T00:02:49;102630.41;;;1.10;nan
56420;BME280;42323;52.170;7.538;2023-04-04T00:05:16;102624.53;;;1.06;nan
56420;BME280;42323;52.170;7.538;2023-04-04T00:07:46;102626.22;;;1.07;nan
56420;BME280;42323;52.170;7.538;2023-04-04T00:10:13;102631.53;;;1.04;nan
56420;BME280;42323;52.170;7.538;2023-04-04T00:12:40;102622.56;;;0.92;nan
56420;BME280;42323;52.170;7.538;2023-04-04T00:15:07;102595.78;;;0.74;nan
56420;BME280;42323;52.170;7.538;2023-04-04T00:17:33;102623.50;;;0.90;nan
56420;BME280;42323;52.170;7.538;2023-04-04T00:20:00;102621.91;;;0.87;nan
56420;BME280;42323;52.170;7.538;2023-04-04T00:22:27;102632.03;;;0.92;nan
56420;BME280;42323;52.170;7.538;2023-04-04T00:24:53;102630.53;;;0.86;nan
56420;BME280;42323;52.170;7.538;2023-04-04T00:27:20;102607.06;;;0.72;nan
56420;BME280;42323;52.170;7.538;2023-04-04T00:29:46;102620.75;;;0.74;nan
56420;BME280;42323;52.170;7.538;2023-04-04T00:32:13;102615.09;;;0.64;nan
56420;BME280;42323;52.170;7.538;2023-04-04T00:34:40;102625.19;;;0.70;nan
56420;BME280;42323;52.170;7.538;2023-04-04T00:37:06;102623.44;;;0.71;nan
56420;BME280;42323;52.170;7.538;2023-04-04T00:39:33;102619.94;;;0.72;nan
56420;BME280;42323;52.170;7.538;2023-04-04T00:41:59;102615.97;;;0.65;nan
56420;BME280;42323;52.170;7.538;2023-04-04T00:44:26;102617.66;;;0.64;nan
56420;BME280;42323;52.170;7.538;2023-04-04T00:46:53;102607.72;;;0.55;nan
56420;BME280;42323;52.170;7.538;2023-04-04T00:49:19;102604.38;;;0.53;nan
56420;BME280;42323;52.170;7.538;2023-04-04T00:51:46;102620.59;;;0.57;nan
56420;BME280;42323;52.170;7.538;2023-04-04T00:54:12;102605.47;;;0.47;nan
56420;BME280;42323;52.170;7.538;2023-04-04T00:56:39;102610.75;;;0.44;nan
56420;BME280;42323;52.170;7.538;2023-04-04T00:59:06;102605.78;;;0.40;nan
56420;BME280;42323;52.170;7.538;2023-04-04T01:01:34;102600.75;;;0.37;nan
56420;BME280;42323;52.170;7.538;2023-04-04T01:04:02;102615.44;;;0.35;nan
56420;BME280;42323;52.170;7.538;2023-04-04T01:06:29;102597.03;;;0.22;nan
56420;BME280;42323;52.170;7.538;2023-04-04T01:08:58;102596.25;;;0.20;nan
56420;BME280;42323;52.170;7.538;2023-04-04T01:11:25;102611.50;;;0.26;nan
56420;BME280;42323;52.170;7.538;2023-04-04T01:13:53;102615.00;;;0.23;nan
56420;BME280;42323;52.170;7.538;2023-04-04T01:16:20;102611.06;;;0.15;nan
56420;BME280;42323;52.170;7.538;2023-04-04T01:18:49;102595.94;;;0.06;nan
56420;BME280;42323;52.170;7.538;2023-04-04T01:21:17;102594.97;;;0.08;nan
56420;BME280;42323;52.170;7.538;2023-04-04T01:24:07;102600.28;;;0.05;nan
56420;BME280;42323;52.170;7.538;2023-04-04T01:26:33;102591.88;;;0.00;nan
56420;BME280;42323;52.170;7.538;2023-04-04T01:29:00;102599.66;;;-0.02;nan
56420;BME280;42323;52.170;7.538;2023-04-04T01:31:34;102600.44;;;0.01;nan
56420;BME280;42323;52.170;7.538;2023-04-04T01:36:59;102590.31;;;-0.04;nan
56420;BME280;42323;52.170;7.538;2023-04-04T01:39:35;102594.47;;;0.00;nan
56420;BME280;42323;52.170;7.538;2023-04-04T01:42:05;102598.16;;;-0.07;nan
56420;BME280;42323;52.170;7.538;2023-04-04T01:44:33;102589.63;;;-0.09;nan
56420;BME280;42323;52.170;7.538;2023-04-04T01:47:00;102606.63;;;-0.04;nan
56420;BME280;42323;52.170;7.538;2023-04-04T01:49:29;102585.66;;;-0.18;nan
56420;BME280;42323;52.170;7.538;2023-04-04T01:51:55;102575.44;;;-0.19;nan
56420;BME280;42323;52.170;7.538;2023-04-04T01:54:22;102569.56;;;-0.23;nan
56420;BME280;42323;52.170;7.538;2023-04-04T01:56:49;102589.03;;;-0.16;nan
56420;BME280;42323;52.170;7.538;2023-04-04T01:59:16;102592.63;;;-0.20;nan
56420;BME280;42323;52.170;7.538;2023-04-04T02:01:43;102591.84;;;-0.22;nan
56420;BME280;42323;52.170;7.538;2023-04-04T02:04:10;102590.25;;;-0.26;nan
56420;BME280;42323;52.170;7.538;2023-04-04T02:06:37;102578.63;;;-0.36;nan
56420;BME280;42323;52.170;7.538;2023-04-04T02:09:05;102592.31;;;-0.34;nan
56420;BME280;42323;52.170;7.538;2023-04-04T02:11:32;102595.81;;;-0.37;nan
56420;BME280;42323;52.170;7.538;2023-04-04T02:13:58;102574.91;;;-0.51;nan
56420;BME280;42323;52.170;7.538;2023-04-04T02:16:25;102585.22;;;-0.51;nan
56420;BME280;42323;52.170;7.538;2023-04-04T02:18:52;102585.22;;;-0.51;nan
56420;BME280;42323;52.170;7.538;2023-04-04T02:21:18;102586.88;;;-0.50;nan
56420;BME280;42323;52.170;7.538;2023-04-04T02:23:45;102586.94;;;-0.52;nan
56420;BME280;42323;52.170;7.538;2023-04-04T02:26:11;102574.38;;;-0.61;nan
56420;BME280;42323;52.170;7.538;2023-04-04T02:28:38;102569.38;;;-0.64;nan
56420;BME280;42323;52.170;7.538;2023-04-04T02:31:04;102577.75;;;-0.59;nan
56420;BME280;42323;52.170;7.538;2023-04-04T02:33:31;102591.34;;;-0.55;nan
56420;BME280;42323;52.170;7.538;2023-04-04T02:35:58;102590.53;;;-0.56;nan
56420;BME280;42323;52.170;7.538;2023-04-04T02:38:25;102584.00;;;-0.66;nan
56420;BME280;42323;52.170;7.538;2023-04-04T02:40:52;102590.13;;;-0.68;nan
56420;BME280;42323;52.170;7.538;2023-04-04T02:43:19;102576.72;;;-0.78;nan
56420;BME280;42323;52.170;7.538;2023-04-04T02:45:47;102594.53;;;-0.72;nan
56420;BME280;42323;52.170;7.538;2023-04-04T02:48:14;102567.81;;;-0.93;nan
56420;BME280;42323;52.170;7.538;2023-04-04T02:50:41;102567.09;;;-0.96;nan
56420;BME280;42323;52.170;7.538;2023-04-04T02:53:08;102578.19;;;-0.96;nan
56420;BME280;42323;52.170;7.538;2023-04-04T02:55:35;102576.59;;;-0.98;nan
56420;BME280;42323;52.170;7.538;2023-04-04T02:58:01;102565.81;;;-1.10;nan
56420;BME280;42323;52.170;7.538;2023-04-04T03:00:28;102556.63;;;-1.17;nan
56420;BME280;42323;52.170;7.538;2023-04-04T03:02:56;102559.00;;;-1.11;nan
56420;BME280;42323;52.170;7.538;2023-04-04T03:05:23;102565.66;;;-1.05;nan
56420;BME280;42323;52.170;7.538;2023-04-04T03:07:54;102562.25;;;-1.06;nan
56420;BME280;42323;52.170;7.538;2023-04-04T03:10:22;102558.09;;;-1.10;nan
56420;BME280;42323;52.170;7.538;2023-04-04T03:12:49;102544.63;;;-1.16;nan
56420;BME280;42323;52.170;7.538;2023-04-04T03:15:16;102552.38;;;-1.18;nan
56420;BME280;42323;52.170;7.538;2023-04-04T03:17:43;102552.63;;;-1.26;nan
56420;BME280;42323;52.170;7.538;2023-04-04T03:20:11;102548.38;;;-1.25;nan
56420;BME280;42323;52.170;7.538;2023-04-04T03:22:38;102550.81;;;-1.22;nan
56420;BME280;42323;52.170;7.538;2023-04-04T03:25:05;102543.31;;;-1.28;nan
56420;BME280;42323;52.170;7.538;2023-04-04T03:27:32;102553.34;;;-1.20;nan
56420;BME280;42323;52.170;7.538;2023-04-04T03:30:00;102552.44;;;-1.19;nan
56420;BME280;42323;52.170;7.538;2023-04-04T03:32:27;102544.06;;;-1.24;nan
56420;BME280;42323;52.170;7.538;2023-04-04T03:34:54;102533.81;;;-1.26;nan
56420;BME280;42323;52.170;7.538;2023-04-04T03:37:20;102534.66;;;-1.26;nan
56420;BME280;42323;52.170;7.538;2023-04-04T03:39:48;102531.22;;;-1.26;nan
56420;BME280;42323;52.170;7.538;2023-04-04T03:42:14;102532.13;;;-1.27;nan
56420;BME280;42323;52.170;7.538;2023-04-04T03:44:42;102541.59;;;-1.28;nan
56420;BME280;42323;52.170;7.538;2023-04-04T03:47:08;102526.50;;;-1.38;nan
56420;BME280;42323;52.170;7.538;2023-04-04T03:49:35;102536.00;;;-1.40;nan
56420;BME280;42323;52.170;7.538;2023-04-04T03:52:02;102533.44;;;-1.40;nan
56420;BME280;42323;52.170;7.538;2023-04-04T03:54:28;102539.25;;;-1.35;nan
56420;BME280;42323;52.170;7.538;2023-04-04T03:56:56;102532.44;;;-1.36;nan
56420;BME280;42323;52.170;7.538;2023-04-04T03:59:22;102525.00;;;-1.44;nan
56420;BME280;42323;52.170;7.538;2023-04-04T04:01:49;102511.69;;;-1.55;nan
56420;BME280;42323;52.170;7.538;2023-04-04T04:04:16;102542.97;;;-1.44;nan
56420;BME280;42323;52.170;7.538;2023-04-04T04:06:42;102526.81;;;-1.47;nan
56420;BME280;42323;52.170;7.538;2023-04-04T04:09:09;102515.81;;;-1.51;nan
56420;BME280;42323;52.170;7.538;2023-04-04T04:11:38;102515.94;;;-1.56;nan
56420;BME280;42323;52.170;7.538;2023-04-04T04:14:05;102528.56;;;-1.48;nan
56420;BME280;42323;52.170;7.538;2023-04-04T04:16:31;102517.75;;;-1.58;nan
56420;BME280;42323;52.170;7.538;2023-04-04T04:18:58;102526.22;;;-1.56;nan
56420;BME280;42323;52.170;7.538;2023-04-04T04:21:27;102520.47;;;-1.62;nan
56420;BME280;42323;52.170;7.538;2023-04-04T04:23:53;102527.25;;;-1.60;nan
56420;BME280;42323;52.170;7.538;2023-04-04T04:26:20;102533.25;;;-1.61;nan
56420;BME280;42323;52.170;7.538;2023-04-04T04:28:47;102538.41;;;-1.61;nan
56420;BME280;42323;52.170;7.538;2023-04-04T04:31:13;102535.97;;;-1.65;nan
56420;BME280;42323;52.170;7.538;2023-04-04T04:33:40;102529.94;;;-1.64;nan
56420;BME280;42323;52.170;7.538;2023-04-04T04:36:07;102526.75;;;-1.71;nan
56420;BME280;42323;52.170;7.538;2023-04-04T04:38:34;102520.78;;;-1.71;nan
56420;BME280;42323;52.170;7.538;2023-04-04T04:41:00;102516.66;;;-1.77;nan
56420;BME280;42323;52.170;7.538;2023-04-04T04:43:27;102511.56;;;-1.79;nan
56420;BME280;42323;52.170;7.538;2023-04-04T04:45:54;102505.66;;;-1.81;nan
56420;BME280;42323;52.170;7.538;2023-04-04T04:48:21;102505.81;;;-1.85;nan
56420;BME280;42323;52.170;7.538;2023-04-04T04:50:47;102528.63;;;-1.76;nan
56420;BME280;42323;52.170;7.538;2023-04-04T04:53:14;102524.63;;;-1.85;nan
56420;BME280;42323;52.170;7.538;2023-04-04T04:55:41;102520.47;;;-1.89;nan
56420;BME280;42323;52.170;7.538;2023-04-04T04:58:08;102511.13;;;-1.91;nan
56420;BME280;42323;52.170;7.538;2023-04-04T05:00:36;102520.22;;;-1.81;nan
56420;BME280;42323;52.170;7.538;2023-04-04T05:03:03;102527.13;;;-1.83;nan
56420;BME280;42323;52.170;7.538;2023-04-04T05:05:35;102533.84;;;-1.79;nan
56420;BME280;42323;52.170;7.538;2023-04-04T05:08:03;102532.19;;;-1.80;nan
56420;BME280;42323;52.170;7.538;2023-04-04T05:10:30;102524.81;;;-1.91;nan
56420;BME280;42323;52.170;7.538;2023-04-04T05:12:57;102539.19;;;-1.85;nan
56420;BME280;42323;52.170;7.538;2023-04-04T05:15:26;102546.94;;;-1.87;nan
56420;BME280;42323;52.170;7.538;2023-04-04T05:17:54;102541.81;;;-1.87;nan
56420;BME280;42323;52.170;7.538;2023-04-04T05:20:21;102504.69;;;-2.05;nan
56420;BME280;42323;52.170;7.538;2023-04-04T05:22:49;102534.09;;;-1.87;nan
56420;BME280;42323;52.170;7.538;2023-04-04T05:25:17;102556.66;;;-1.68;nan
56420;BME280;42323;52.170;7.538;2023-04-04T05:27:47;102549.78;;;-1.68;nan
56420;BME280;42323;52.170;7.538;2023-04-04T05:30:14;102536.34;;;-1.76;nan
56420;BME280;42323;52.170;7.538;2023-04-04T05:32:43;102550.47;;;-1.63;nan
56420;BME280;42323;52.170;7.538;2023-04-04T05:35:13;102556.44;;;-1.62;nan
56420;BME280;42323;52.170;7.538;2023-04-04T05:37:43;102547.94;;;-1.64;nan
56420;BME280;42323;52.170;7.538;2023-04-04T05:40:10;102548.00;;;-1.66;nan
56420;BME280;42323;52.170;7.538;2023-04-04T05:42:37;102556.44;;;-1.62;nan
56420;BME280;42323;52.170;7.538;2023-04-04T05:45:04;102563.06;;;-1.55;nan
56420;BME280;42323;52.170;7.538;2023-04-04T05:47:31;102561.19;;;-1.50;nan
56420;BME280;42323;52.170;7.538;2023-04-04T05:49:58;102566.22;;;-1.47;nan
56420;BME280;42323;52.170;7.538;2023-04-04T05:52:25;102569.53;;;-1.43;nan
56420;BME280;42323;52.170;7.538;2023-04-04T05:54:51;102574.56;;;-1.40;nan
56420;BME280;42323;52.170;7.538;2023-04-04T05:57:18;102564.28;;;-1.40;nan
56420;BME280;42323;52.170;7.538;2023-04-04T05:59:45;102577.06;;;-1.37;nan
56420;BME280;42323;52.170;7.538;2023-04-04T06:02:11;102581.72;;;-1.23;nan
56420;BME280;42323;52.170;7.538;2023-04-04T06:04:38;102579.16;;;-1.23;nan
56420;BME280;42323;52.170;7.538;2023-04-04T06:07:06;102581.81;;;-1.27;nan
56420;BME280;42323;52.170;7.538;2023-04-04T06:09:32;102584.38;;;-1.25;nan
56420;BME280;42323;52.170;7.538;2023-04-04T06:12:02;102576.06;;;-1.33;nan
56420;BME280;42323;52.170;7.538;2023-04-04T06:14:29;102577.41;;;-1.23;nan
56420;BME280;42323;52.170;7.538;2023-04-04T06:16:57;102589.34;;;-1.20;nan
56420;BME280;42323;52.170;7.538;2023-04-04T06:19:24;102576.59;;;-1.23;nan
56420;BME280;42323;52.170;7.538;2023-04-04T06:21:50;102572.13;;;-1.18;nan
56420;BME280;42323;52.170;7.538;2023-04-04T06:24:17;102580.34;;;-1.09;nan
56420;BME280;42323;52.170;7.538;2023-04-04T06:26:43;102584.56;;;-1.06;nan
56420;BME280;42323;52.170;7.538;2023-04-04T06:29:10;102582.75;;;-1.03;nan
56420;BME280;42323;52.170;7.538;2023-04-04T06:31:37;102583.47;;;-0.99;nan
56420;BME280;42323;52.170;7.538;2023-04-04T06:37:46;102587.91;;;-0.79;nan
56420;BME280;42323;52.170;7.538;2023-04-04T06:40:13;102583.56;;;-0.77;nan
56420;BME280;42323;52.170;7.538;2023-04-04T06:42:50;102600.25;;;-0.64;nan
56420;BME280;42323;52.170;7.538;2023-04-04T06:45:23;102577.97;;;-0.65;nan
56420;BME280;42323;52.170;7.538;2023-04-04T06:47:50;102605.47;;;-0.42;nan
56420;BME280;42323;52.170;7.538;2023-04-04T06:50:19;102604.47;;;-0.38;nan
56420;BME280;42323;52.170;7.538;2023-04-04T06:52:48;102599.16;;;-0.35;nan
56420;BME280;42323;52.170;7.538;2023-04-04T06:55:16;102605.84;;;-0.29;nan
56420;BME280;42323;52.170;7.538;2023-04-04T06:57:43;102600.25;;;-0.17;nan
56420;BME280;42323;52.170;7.538;2023-04-04T07:00:10;102612.59;;;-0.03;nan
56420;BME280;42323;52.170;7.538;2023-04-04T07:02:36;102596.00;;;0.04;nan
56420;BME280;42323;52.170;7.538;2023-04-04T07:05:03;102577.25;;;0.01;nan
56420;BME280;42323;52.170;7.538;2023-04-04T07:07:30;102607.94;;;0.29;nan
56420;BME280;42323;52.170;7.538;2023-04-04T07:09:57;102595.13;;;0.27;nan
56420;BME280;42323;52.170;7.538;2023-04-04T07:12:23;102592.94;;;0.38;nan
56420;BME280;42323;52.170;7.538;2023-04-04T07:14:50;102592.53;;;0.49;nan
56420;BME280;42323;52.170;7.538;2023-04-04T07:17:18;102571.06;;;0.48;nan
56420;BME280;42323;52.170;7.538;2023-04-04T07:19:50;102591.13;;;0.62;nan
56420;BME280;42323;52.170;7.538;2023-04-04T07:22:16;102583.06;;;0.70;nan
56420;BME280;42323;52.170;7.538;2023-04-04T07:24:43;102589.63;;;0.77;nan
56420;BME280;42323;52.170;7.538;2023-04-04T07:27:10;102588.28;;;0.89;nan
56420;BME280;42323;52.170;7.538;2023-04-04T07:29:37;102579.53;;;0.93;nan
56420;BME280;42323;52.170;7.538;2023-04-04T07:32:03;102596.16;;;1.06;nan
56420;BME280;42323;52.170;7.538;2023-04-04T07:34:30;102593.25;;;1.14;nan
56420;BME280;42323;52.170;7.538;2023-04-04T07:36:56;102594.59;;;1.22;nan
56420;BME280;42323;52.170;7.538;2023-04-04T07:39:23;102586.72;;;1.25;nan
56420;BME280;42323;52.170;7.538;2023-04-04T07:41:49;102584.56;;;1.35;nan
56420;BME280;42323;52.170;7.538;2023-04-04T07:44:16;102601.63;;;1.58;nan
56420;BME280;42323;52.170;7.538;2023-04-04T07:46:42;102599.53;;;1.66;nan
56420;BME280;42323;52.170;7.538;2023-04-04T07:49:10;102589.59;;;1.76;nan
56420;BME280;42323;52.170;7.538;2023-04-04T07:51:37;102573.22;;;1.77;nan
56420;BME280;42323;52.170;7.538;2023-04-04T07:54:05;102584.66;;;1.90;nan
56420;BME280;42323;52.170;7.538;2023-04-04T07:56:31;102580.88;;;1.97;nan
56420;BME280;42323;52.170;7.538;2023-04-04T07:58:58;102581.25;;;2.07;nan
56420;BME280;42323;52.170;7.538;2023-04-04T08:01:25;102581.75;;;2.15;nan
56420;BME280;42323;52.170;7.538;2023-04-04T08:03:52;102581.25;;;2.26;nan
56420;BME280;42323;52.170;7.538;2023-04-04T08:06:19;102579.34;;;2.30;nan
56420;BME280;42323;52.170;7.538;2023-04-04T08:08:46;102582.09;;;2.44;nan
56420;BME280;42323;52.170;7.538;2023-04-04T08:11:13;102577.69;;;2.46;nan
56420;BME280;42323;52.170;7.538;2023-04-04T08:13:39;102569.72;;;2.50;nan
56420;BME280;42323;52.170;7.538;2023-04-04T08:16:06;102559.81;;;2.59;nan
56420;BME280;42323;52.170;7.538;2023-04-04T08:18:33;102568.19;;;2.64;nan
56420;BME280;42323;52.170;7.538;2023-04-04T08:21:00;102580.69;;;2.73;nan
56420;BME280;42323;52.170;7.538;2023-04-04T08:23:29;102533.19;;;2.57;nan
56420;BME280;42323;52.170;7.538;2023-04-04T08:25:56;102523.81;;;2.54;nan
56420;BME280;42323;52.170;7.538;2023-04-04T08:28:25;102560.44;;;2.81;nan
56420;BME280;42323;52.170;7.538;2023-04-04T08:30:55;102573.09;;;3.03;nan
56420;BME280;42323;52.170;7.538;2023-04-04T08:33:22;102526.69;;;2.83;nan
56420;BME280;42323;52.170;7.538;2023-04-04T08:35:54;102563.69;;;3.18;nan
56420;BME280;42323;52.170;7.538;2023-04-04T08:38:22;102573.28;;;3.33;nan
56420;BME280;42323;52.170;7.538;2023-04-04T08:40:49;102563.66;;;3.35;nan
56420;BME280;42323;52.170;7.538;2023-04-04T08:43:16;102563.34;;;3.41;nan
56420;BME280;42323;52.170;7.538;2023-04-04T08:45:44;102562.84;;;3.50;nan
56420;BME280;42323;52.170;7.538;2023-04-04T08:48:14;102565.19;;;3.55;nan
56420;BME280;42323;52.170;7.538;2023-04-04T08:50:42;102569.63;;;3.69;nan
56420;BME280;42323;52.170;7.538;2023-04-04T08:53:10;102569.03;;;3.80;nan
56420;BME280;42323;52.170;7.538;2023-04-04T08:55:37;102572.47;;;3.96;nan
56420;BME280;42323;52.170;7.538;2023-04-04T08:58:04;102568.47;;;4.06;nan
56420;BME280;42323;52.170;7.538;2023-04-04T09:00:31;102559.13;;;4.18;nan
56420;BME280;42323;52.170;7.538;2023-04-04T09:03:09;102573.47;;;4.39;nan
56420;BME280;42323;52.170;7.538;2023-04-04T09:05:40;102562.50;;;4.50;nan
56420;BME280;42323;52.170;7.538;2023-04-04T09:08:11;102569.94;;;4.70;nan
56420;BME280;42323;52.170;7.538;2023-04-04T09:10:40;102557.81;;;4.71;nan
56420;BME280;42323;52.170;7.538;2023-04-04T09:13:09;102555.41;;;4.82;nan
56420;BME280;42323;52.170;7.538;2023-04-04T09:15:45;102568.88;;;4.89;nan
56420;BME280;42323;52.170;7.538;2023-04-04T09:18:12;102561.81;;;4.91;nan
56420;BME280;42323;52.170;7.538;2023-04-04T09:20:40;102564.34;;;5.07;nan
56420;BME280;42323;52.170;7.538;2023-04-04T09:23:15;102558.03;;;5.25;nan
56420;BME280;42323;52.170;7.538;2023-04-04T09:25:51;102559.59;;;5.42;nan
56420;BME280;42323;52.170;7.538;2023-04-04T09:28:29;102556.78;;;5.59;nan
56420;BME280;42323;52.170;7.538;2023-04-04T09:30:55;102539.91;;;5.66;nan
56420;BME280;42323;52.170;7.538;2023-04-04T09:33:22;102539.56;;;5.85;nan
56420;BME280;42323;52.170;7.538;2023-04-04T09:36:07;102549.94;;;5.99;nan
56420;BME280;42323;52.170;7.538;2023-04-04T09:38:48;102516.41;;;5.95;nan
56420;BME280;42323;52.170;7.538;2023-04-04T09:41:48;102499.38;;;6.03;nan
56420;BME280;42323;52.170;7.538;2023-04-04T09:44:15;102528.69;;;6.33;nan
56420;BME280;42323;52.170;7.538;2023-04-04T09:46:42;102521.13;;;6.55;nan
56420;BME280;42323;52.170;7.538;2023-04-04T09:49:10;102508.75;;;6.84;nan
56420;BME280;42323;52.170;7.538;2023-04-04T09:51:39;102527.50;;;7.51;nan
56420;BME280;42323;52.170;7.538;2023-04-04T09:54:19;102527.53;;;8.35;nan
56420;BME280;42323;52.170;7.538;2023-04-04T09:56:57;102524.81;;;9.05;nan
56420;BME280;42323;52.170;7.538;2023-04-04T09:59:23;102511.88;;;9.69;nan
56420;BME280;42323;52.170;7.538;2023-04-04T10:01:50;102510.47;;;10.50;nan
56420;BME280;42323;52.170;7.538;2023-04-04T10:04:19;102507.22;;;11.19;nan
56420;BME280;42323;52.170;7.538;2023-04-04T10:06:46;102493.91;;;11.71;nan
56420;BME280;42323;52.170;7.538;2023-04-04T10:09:14;102508.28;;;12.44;nan
56420;BME280;42323;52.170;7.538;2023-04-04T10:11:41;102521.44;;;13.19;nan
56420;BME280;42323;52.170;7.538;2023-04-04T10:14:08;102501.91;;;13.67;nan
56420;BME280;42323;52.170;7.538;2023-04-04T10:16:34;102516.66;;;14.57;nan
56420;BME280;42323;52.170;7.538;2023-04-04T10:19:04;102508.28;;;14.96;nan
56420;BME280;42323;52.170;7.538;2023-04-04T10:21:33;102513.91;;;15.01;nan
56420;BME280;42323;52.170;7.538;2023-04-04T10:24:00;102502.31;;;14.86;nan
56420;BME280;42323;52.170;7.538;2023-04-04T10:26:35;102491.75;;;14.94;nan
56420;BME280;42323;52.170;7.538;2023-04-04T10:29:02;102488.69;;;15.06;nan
56420;BME280;42323;52.170;7.538;2023-04-04T10:31:32;102486.06;;;15.15;nan
56420;BME280;42323;52.170;7.538;2023-04-04T10:34:08;102508.75;;;15.34;nan
56420;BME280;42323;52.170;7.538;2023-04-04T10:37:06;102439.88;;;14.76;nan
56420;BME280;42323;52.170;7.538;2023-04-04T10:39:43;102511.06;;;14.60;nan
56420;BME280;42323;52.170;7.538;2023-04-04T10:42:14;102449.16;;;14.02;nan
56420;BME280;42323;52.170;7.538;2023-04-04T10:44:42;102490.59;;;14.36;nan
56420;BME280;42323;52.170;7.538;2023-04-04T10:47:20;102492.22;;;14.81;nan
56420;BME280;42323;52.170;7.538;2023-04-04T10:49:50;102464.06;;;14.55;nan
56420;BME280;42323;52.170;7.538;2023-04-04T10:52:22;102474.22;;;14.50;nan
56420;BME280;42323;52.170;7.538;2023-04-04T10:54:51;102477.44;;;14.96;nan
56420;BME280;42323;52.170;7.538;2023-04-04T10:57:19;102485.97;;;15.24;nan
56420;BME280;42323;52.170;7.538;2023-04-04T11:00:05;102470.38;;;14.71;nan
56420;BME280;42323;52.170;7.538;2023-04-04T11:02:48;102464.94;;;14.64;nan
56420;BME280;42323;52.170;7.538;2023-04-04T11:05:33;102479.03;;;14.81;nan
56420;BME280;42323;52.170;7.538;2023-04-04T11:08:04;102477.47;;;14.18;nan
56420;BME280;42323;52.170;7.538;2023-04-04T11:13:08;102472.66;;;14.40;nan
56420;BME280;42323;52.170;7.538;2023-04-04T11:18:20;102477.97;;;16.24;nan
56420;BME280;42323;52.170;7.538;2023-04-04T11:20:53;102458.41;;;16.49;nan
56420;BME280;42323;52.170;7.538;2023-04-04T11:23:20;102467.22;;;16.89;nan
56420;BME280;42323;52.170;7.538;2023-04-04T11:25:55;102459.28;;;16.89;nan
56420;BME280;42323;52.170;7.538;2023-04-04T11:31:41;102453.53;;;18.53;nan
56420;BME280;42323;52.170;7.538;2023-04-04T11:34:09;102447.91;;;18.92;nan
56420;BME280;42323;52.170;7.538;2023-04-04T11:44:32;102438.94;;;18.93;nan
56420;BME280;42323;52.170;7.538;2023-04-04T11:49:26;102432.28;;;18.53;nan
56420;BME280;42323;52.170;7.538;2023-04-04T11:51:57;102429.97;;;18.79;nan
56420;BME280;42323;52.170;7.538;2023-04-04T11:54:23;102418.78;;;18.84;nan
56420;BME280;42323;52.170;7.538;2023-04-04T11:56:54;102418.88;;;19.55;nan
56420;BME280;42323;52.170;7.538;2023-04-04T11:59:20;102408.31;;;19.83;nan
56420;BME280;42323;52.170;7.538;2023-04-04T12:01:48;102419.88;;;20.60;nan
56420;BME280;42323;52.170;7.538;2023-04-04T12:04:17;102410.59;;;21.23;nan
56420;BME280;42323;52.170;7.538;2023-04-04T12:06:48;102416.72;;;21.04;nan
56420;BME280;42323;52.170;7.538;2023-04-04T12:09:16;102412.03;;;21.13;nan
56420;BME280;42323;52.170;7.538;2023-04-04T12:11:45;102401.41;;;21.66;nan
56420;BME280;42323;52.170;7.538;2023-04-04T12:14:18;102395.50;;;21.50;nan
56420;BME280;42323;52.170;7.538;2023-04-04T12:16:49;102393.00;;;21.82;nan
56420;BME280;42323;52.170;7.538;2023-04-04T12:19:17;102367.50;;;21.99;nan
56420;BME280;42323;52.170;7.538;2023-04-04T12:21:48;102388.63;;;22.14;nan
56420;BME280;42323;52.170;7.538;2023-04-04T12:24:18;102383.91;;;21.10;nan
56420;BME280;42323;52.170;7.538;2023-04-04T12:26:49;102385.56;;;20.09;nan
56420;BME280;42323;52.170;7.538;2023-04-04T12:29:17;102356.84;;;21.00;nan
56420;BME280;42323;52.170;7.538;2023-04-04T12:31:45;102352.34;;;21.87;nan
56420;BME280;42323;52.170;7.538;2023-04-04T12:34:29;102332.22;;;21.71;nan
56420;BME280;42323;52.170;7.538;2023-04-04T12:36:56;102367.34;;;21.61;nan
56420;BME280;42323;52.170;7.538;2023-04-04T12:39:27;102365.69;;;21.07;nan
56420;BME280;42323;52.170;7.538;2023-04-04T12:44:35;102365.22;;;20.97;nan
56420;BME280;42323;52.170;7.538;2023-04-04T12:47:07;102349.44;;;21.02;nan
56420;BME280;42323;52.170;7.538;2023-04-04T12:49:39;102350.31;;;21.16;nan
56420;BME280;42323;52.170;7.538;2023-04-04T12:52:15;102351.53;;;21.26;nan
56420;BME280;42323;52.170;7.538;2023-04-04T12:54:42;102319.34;;;21.21;nan
56420;BME280;42323;52.170;7.538;2023-04-04T12:57:17;102316.13;;;22.17;nan
56420;BME280;42323;52.170;7.538;2023-04-04T12:59:45;102316.97;;;22.49;nan
56420;BME280;42323;52.170;7.538;2023-04-04T13:02:16;102331.25;;;22.37;nan
56420;BME280;42323;52.170;7.538;2023-04-04T13:04:51;102329.81;;;22.72;nan
56420;BME280;42323;52.170;7.538;2023-04-04T13:07:50;102254.16;;;22.40;nan
56420;BME280;42323;52.170;7.538;2023-04-04T13:13:31;102321.34;;;22.44;nan
56420;BME280;42323;52.170;7.538;2023-04-04T13:15:58;102300.03;;;22.37;nan
56420;BME280;42323;52.170;7.538;2023-04-04T13:18:33;102288.50;;;21.78;nan
56420;BME280;42323;52.170;7.538;2023-04-04T13:21:04;102243.94;;;21.86;nan
56420;BME280;42323;52.170;7.538;2023-04-04T13:23:34;102280.88;;;22.40;nan
56420;BME280;42323;52.170;7.538;2023-04-04T13:26:02;102278.34;;;22.14;nan
56420;BME280;42323;52.170;7.538;2023-04-04T13:28:30;102289.78;;;21.49;nan
56420;BME280;42323;52.170;7.538;2023-04-04T13:31:00;102267.88;;;20.94;nan
56420;BME280;42323;52.170;7.538;2023-04-04T13:33:27;102279.97;;;21.03;nan
56420;BME280;42323;52.170;7.538;2023-04-04T13:35:54;102275.19;;;21.59;nan
56420;BME280;42323;52.170;7.538;2023-04-04T13:38:20;102270.22;;;21.82;nan
56420;BME280;42323;52.170;7.538;2023-04-04T13:40:47;102238.31;;;22.45;nan
56420;BME280;42323;52.170;7.538;2023-04-04T13:43:13;102249.50;;;22.92;nan
56420;BME280;42323;52.170;7.538;2023-04-04T13:45:41;102237.50;;;23.45;nan
56420;BME280;42323;52.170;7.538;2023-04-04T13:48:11;102251.78;;;23.14;nan
56420;BME280;42323;52.170;7.538;2023-04-04T13:50:40;102238.84;;;21.77;nan
56420;BME280;42323;52.170;7.538;2023-04-04T13:53:07;102240.94;;;19.53;nan